Time;durP1;ratioP1;P1;durP2;ratioP2;P2;SDS_P1;SDS_P2;PMS_P1;PMS_P2;Temp;Humidity;BMP_temperature;BMP_pressure;BME280_temperature;BME280_humidity;BME280_pressure;Samples;Min_cycle;Max_cycle;Signal;HPM_P1;HPM_P2
2022/05/04 00:05:00;;;;;;;6.97;5.17;;;13.30;81.80;;;;;;12738355;23;20168;-87
2022/05/04 00:10:05;;;;;;;8.67;6.53;;;13.40;81.40;;;;;;12755591;23;20173;-87
2022/05/04 00:15:08;;;;;;;4.80;3.47;;;12.90;82.40;;;;;;12711518;23;20229;-87
2022/05/04 00:20:11;;;;;;;7.63;6.13;;;13.40;81.30;;;;;;12710374;23;20241;-87
2022/05/04 00:25:14;;;;;;;10.17;6.90;;;12.90;82.70;;;;;;12686214;23;20519;-87
2022/05/04 00:30:16;;;;;;;3.67;2.27;;;12.30;85.70;;;;;;12736744;23;20243;-87
2022/05/04 00:35:19;;;;;;;10.13;6.33;;;13.70;81.00;;;;;;12709687;23;20184;-87
2022/05/04 00:40:21;;;;;;;8.93;6.87;;;14.10;78.90;;;;;;12753504;23;20188;-87
2022/05/04 00:45:24;;;;;;;5.57;4.83;;;11.20;90.50;;;;;;12736860;23;20164;-87
2022/05/04 00:50:26;;;;;;;5.10;3.97;;;11.20;91.30;;;;;;12710166;23;20180;-86
2022/05/04 00:55:29;;;;;;;5.80;4.83;;;12.20;88.50;;;;;;12752991;23;20177;-86
2022/05/04 01:00:32;;;;;;;12.33;7.17;;;12.70;85.80;;;;;;12705526;23;20207;-87
2022/05/04 01:05:35;;;;;;;3.27;2.17;;;12.00;88.90;;;;;;12683050;23;20182;-87
2022/05/04 01:10:37;;;;;;;3.87;3.13;;;13.00;84.80;;;;;;12733365;23;20489;-87
2022/05/04 01:15:40;;;;;;;8.20;5.80;;;13.80;81.20;;;;;;12732601;23;20183;-86
2022/05/04 01:20:43;;;;;;;5.83;3.43;;;14.30;78.70;;;;;;12704839;23;20196;-87
2022/05/04 01:25:45;;;;;;;5.17;3.50;;;13.80;80.30;;;;;;12731229;23;20848;-87
2022/05/04 01:30:48;;;;;;;12.60;7.63;;;13.50;81.30;;;;;;12731451;23;20172;-87
2022/05/04 01:35:50;;;;;;;9.90;8.23;;;12.40;84.90;;;;;;12748941;23;20178;-87
2022/05/04 01:40:53;;;;;;;5.60;4.17;;;12.70;84.20;;;;;;12704345;23;20227;-87
2022/05/04 01:45:56;;;;;;;8.10;6.47;;;12.10;87.80;;;;;;12732116;23;20165;-87
2022/05/04 01:50:59;;;;;;;7.60;4.47;;;11.90;87.90;;;;;;12748488;23;20172;-86
2022/05/04 01:56:06;;;;;;;5.37;4.13;;;11.40;91.10;;;;;;12732329;23;20775;-87
2022/05/04 02:01:09;;;;;;;14.17;6.67;;;11.20;91.30;;;;;;12720931;23;20192;-87
2022/05/04 02:06:12;;;;;;;8.53;6.63;;;11.30;91.10;;;;;;12732040;23;20615;-87
2022/05/04 02:11:16;;;;;;;10.83;7.30;;;11.20;91.80;;;;;;12731879;23;20272;-87
2022/05/04 02:16:18;;;;;;;8.60;6.40;;;11.40;91.00;;;;;;12731378;23;20508;-86
2022/05/04 02:21:21;;;;;;;4.10;3.10;;;12.30;89.20;;;;;;12704690;23;20292;-85
2022/05/04 02:26:23;;;;;;;10.10;7.40;;;12.10;88.90;;;;;;12731786;23;20192;-86
2022/05/04 02:31:26;;;;;;;7.40;3.83;;;11.50;90.60;;;;;;12731482;23;20177;-85
2022/05/04 02:41:52;;;;;;;10.53;8.20;;;12.90;85.50;;;;;;12748289;23;20187;-86
2022/05/04 02:46:54;;;;;;;4.67;2.47;;;12.40;86.20;;;;;;12703964;23;20213;-86
2022/05/04 02:51:57;;;;;;;15.50;10.23;;;13.40;84.00;;;;;;12728006;23;20849;-86
2022/05/04 02:56:59;;;;;;;2.57;1.90;;;12.20;85.00;;;;;;12703905;23;20235;-86
2022/05/04 03:07:23;;;;;;;4.67;3.57;;;12.50;84.40;;;;;;12747686;23;20214;-86
2022/05/04 03:12:26;;;;;;;3.27;2.73;;;11.80;89.80;;;;;;12730108;23;20506;-86
2022/05/04 03:17:29;;;;;;;3.53;3.03;;;13.00;85.50;;;;;;12728416;23;20176;-86
2022/05/04 03:22:32;;;;;;;2.33;1.67;;;13.40;83.10;;;;;;12704164;23;20192;-86
2022/05/04 03:27:35;;;;;;;4.43;3.43;;;13.50;82.70;;;;;;12745979;23;20192;-86
2022/05/04 03:32:38;;;;;;;5.37;3.30;;;13.50;81.80;;;;;;12702537;23;20236;-86
2022/05/04 03:37:40;;;;;;;2.70;1.97;;;14.10;80.30;;;;;;12730393;23;20171;-86
2022/05/04 03:42:42;;;;;;;4.33;3.03;;;14.00;79.70;;;;;;12702444;23;20817;-86
2022/05/04 03:47:45;;;;;;;3.03;2.17;;;13.80;80.50;;;;;;12742347;23;20231;-86
2022/05/04 03:52:47;;;;;;;10.53;7.77;;;14.00;79.90;;;;;;12729805;23;20235;-85
2022/05/04 03:57:50;;;;;;;11.80;8.07;;;13.40;80.00;;;;;;12729870;23;20558;-86
2022/05/04 04:02:52;;;;;;;3.70;2.83;;;12.20;84.30;;;;;;12704131;23;20247;-85
2022/05/04 04:07:55;;;;;;;8.07;5.87;;;12.40;86.20;;;;;;12729544;23;20169;-85
2022/05/04 04:12:57;;;;;;;4.00;2.80;;;12.90;83.60;;;;;;12730020;23;20172;-85
2022/05/04 04:18:00;;;;;;;7.63;6.10;;;;;;;;;;12702143;23;20567;-87
2022/05/04 04:23:03;;;;;;;5.10;4.10;;;14.60;77.60;;;;;;12678888;23;20196;-87
2022/05/04 04:28:05;;;;;;;7.07;5.37;;;14.80;76.90;;;;;;12728180;23;20188;-86
2022/05/04 04:33:08;;;;;;;2.00;1.80;;;13.70;80.80;;;;;;12706041;23;20226;-86
2022/05/04 04:38:10;;;;;;;4.97;2.97;;;14.30;79.10;;;;;;12707661;23;20175;-86
2022/05/04 04:43:14;;;;;;;12.73;7.10;;;14.70;77.20;;;;;;12705321;23;20262;-86
2022/05/04 04:48:17;;;;;;;16.40;9.63;;;14.90;77.30;;;;;;12705557;23;20180;-88
2022/05/04 04:53:19;;;;;;;12.83;9.33;;;14.80;78.90;;;;;;12706102;23;20180;-86
2022/05/04 04:58:22;;;;;;;13.60;8.07;;;15.10;78.00;;;;;;12705538;23;20184;-86
2022/05/04 05:03:25;;;;;;;13.53;8.73;;;14.60;79.40;;;;;;12711238;23;20212;-86
2022/05/04 05:08:27;;;;;;;13.13;6.87;;;14.80;79.10;;;;;;12731741;23;20188;-86
2022/05/04 05:13:30;;;;;;;12.93;9.07;;;14.70;79.10;;;;;;12733451;23;20168;-86
2022/05/04 05:18:33;;;;;;;8.70;5.97;;;15.10;78.00;;;;;;12731328;23;20179;-85
2022/05/04 05:23:35;;;;;;;10.37;8.20;;;15.20;76.90;;;;;;12730107;23;20223;-85
2022/05/04 05:28:38;;;;;;;13.03;7.20;;;15.40;77.00;;;;;;12751246;23;20502;-85
2022/05/04 05:33:41;;;;;;;8.07;5.57;;;15.40;76.30;;;;;;12731857;23;20176;-85
2022/05/04 05:38:43;;;;;;;5.70;4.93;;;15.70;75.20;;;;;;12727810;23;20180;-85
2022/05/04 05:43:46;;;;;;;12.37;9.70;;;16.30;73.10;;;;;;12730624;23;20195;-85
2022/05/04 05:48:48;;;;;;;13.77;9.37;;;15.90;74.10;;;;;;12741063;23;20699;-85
2022/05/04 05:53:51;;;;;;;19.10;12.63;;;15.90;75.40;;;;;;12734040;23;20172;-92
2022/05/04 05:58:53;;;;;;;17.90;11.23;;;15.20;78.70;;;;;;12758276;23;20196;-93
2022/05/04 06:03:56;;;;;;;15.43;9.60;;;15.50;77.10;;;;;;12733409;23;20220;-93
2022/05/04 06:08:58;;;;;;;15.80;12.00;;;15.60;76.90;;;;;;12733165;23;20173;-93
2022/05/04 06:14:01;;;;;;;17.10;10.57;;;15.80;77.30;;;;;;12708612;23;20173;-93
2022/05/04 06:19:04;;;;;;;10.60;6.73;;;15.50;77.30;;;;;;12758110;23;20227;-93
2022/05/04 06:24:07;;;;;;;14.20;9.90;;;16.10;74.90;;;;;;12756434;23;20265;-93
2022/05/04 06:29:09;;;;;;;14.30;6.90;;;15.70;76.40;;;;;;12730928;23;20180;-93
2022/05/04 06:34:12;;;;;;;33.37;9.93;;;16.30;74.30;;;;;;12730320;23;20187;-81
2022/05/04 06:39:15;;;;;;;18.53;10.40;;;16.20;75.00;;;;;;12728150;23;20500;-81
2022/05/04 06:44:17;;;;;;;16.03;6.13;;;16.90;73.90;;;;;;12728485;23;20192;-81
2022/05/04 06:49:20;;;;;;;14.30;5.80;;;17.10;73.50;;;;;;12728617;23;20174;-82
2022/05/04 06:54:22;;;;;;;18.10;7.43;;;17.30;73.60;;;;;;12728075;23;20227;-81
2022/05/04 06:59:27;;;;;;;15.10;8.30;;;17.50;71.60;;;;;;12702723;23;20943;-81
2022/05/04 07:04:30;;;;;;;11.53;4.40;;;17.50;72.60;;;;;;12732292;23;20228;-81
2022/05/04 07:09:33;;;;;;;11.63;7.97;;;17.80;72.00;;;;;;12702009;23;20713;-81
2022/05/04 07:14:36;;;;;;;11.97;7.30;;;18.00;69.60;;;;;;12730201;23;20169;-81
2022/05/04 07:19:38;;;;;;;16.20;8.40;;;17.80;70.90;;;;;;12728529;23;20172;-81
2022/05/04 07:24:41;;;;;;;8.18;4.80;;;18.20;70.20;;;;;;12729206;23;20555;-81
2022/05/04 07:29:44;;;;;;;10.90;5.80;;;18.20;69.80;;;;;;12729058;23;20169;-81
2022/05/04 07:34:47;;;;;;;8.23;4.17;;;18.10;70.90;;;;;;12730455;23;20168;-81
2022/05/04 07:45:12;;;;;;;15.33;7.20;;;18.90;66.10;;;;;;12747714;23;20215;-81
2022/05/04 07:50:14;;;;;;;9.20;5.53;;;18.30;69.10;;;;;;12733939;23;20524;-81
2022/05/04 07:55:17;;;;;;;7.80;5.53;;;18.60;68.20;;;;;;12730499;23;20234;-81
2022/05/04 08:05:41;;;;;;;11.27;7.73;;;18.00;69.70;;;;;;12733879;23;20248;-81
2022/05/04 08:10:44;;;;;;;5.40;4.57;;;18.10;67.80;;;;;;12731892;23;20563;-81
2022/05/04 08:15:46;;;;;;;6.13;5.03;;;18.50;68.30;;;;;;12734085;23;20172;-81
2022/05/04 08:20:49;;;;;;;5.93;3.90;;;19.00;66.50;;;;;;12733328;23;20188;-81
2022/05/04 08:25:51;;;;;;;5.50;4.23;;;19.00;67.00;;;;;;12706480;23;20231;-81
2022/05/04 08:30:54;;;;;;;7.00;3.93;;;18.70;67.70;;;;;;12732319;23;20176;-81
2022/05/04 08:35:56;;;;;;;6.03;5.23;;;19.30;66.50;;;;;;12709391;23;20223;-81
2022/05/04 08:41:00;;;;;;;5.28;3.78;;;19.20;65.60;;;;;;12752330;23;20521;-81
2022/05/04 08:46:04;;;;;;;9.95;4.75;;;19.30;65.90;;;;;;12712976;23;20168;-82
2022/05/04 08:51:08;;;;;;;6.90;4.40;;;;;;;;;;12761610;23;20179;-82
2022/05/04 08:56:12;;;;;;;5.40;4.90;;;;;;;;;;12787967;23;20195;-81
2022/05/04 09:01:15;;;;;;;4.45;4.05;;;;;;;;;;12789499;23;20196;-81
2022/05/04 09:06:26;;;;;;;5.03;4.47;;;;;;;;;;12786648;23;20245;-82
2022/05/04 09:11:28;;;;;;;4.63;3.77;;;;;;;;;;12790280;23;20176;-82
2022/05/04 09:16:32;;;;;;;6.07;4.77;;;;;;;;;;12790908;23;20152;-82
2022/05/04 09:21:36;;;;;;;5.10;3.80;;;;;;;;;;12767159;23;20275;-82
2022/05/04 09:26:42;;;;;;;7.07;5.17;;;;;;;;;;12768322;23;20211;-82
2022/05/04 09:31:48;;;;;;;7.70;6.37;;;19.20;63.40;;;;;;12781883;23;20187;-82
2022/05/04 09:47:37;;;;;;;3.47;3.10;;;20.00;64.60;;;;;;12761438;23;20318;-82
2022/05/04 09:52:45;;;;;;;5.70;3.75;;;20.30;63.50;;;;;;12761877;23;20164;-82
2022/05/04 09:57:48;;;;;;;6.50;3.00;;;20.50;62.30;;;;;;12713207;23;20515;-82
2022/05/04 10:02:52;;;;;;;8.15;3.88;;;20.70;62.40;;;;;;12712410;23;20192;-82
2022/05/04 10:07:56;;;;;;;6.03;4.85;;;20.50;61.40;;;;;;12712499;23;20231;-82
2022/05/04 10:12:59;;;;;;;3.35;3.00;;;20.50;58.50;;;;;;12712256;23;20204;-82
2022/05/04 10:18:06;;;;;;;8.05;5.18;;;20.60;62.30;;;;;;12738028;23;20200;-82
2022/05/04 10:23:19;;;;;;;3.60;2.92;;;20.40;59.70;;;;;;12756942;23;20254;-81
2022/05/04 10:28:23;;;;;;;4.10;3.80;;;20.60;62.10;;;;;;12710977;23;20172;-82
2022/05/04 10:33:32;;;;;;;3.85;2.70;;;20.50;60.50;;;;;;12712199;23;20180;-82
2022/05/04 10:38:56;;;;;;;2.90;2.58;;;20.70;59.20;;;;;;12748218;23;20172;-82
2022/05/04 10:43:58;;;;;;;5.18;4.63;;;20.70;61.70;;;;;;12681421;23;20192;-82
2022/05/04 10:49:06;;;;;;;3.75;3.25;;;20.60;56.80;;;;;;12731250;23;20169;-82
2022/05/04 10:54:17;;;;;;;3.33;3.03;;;20.60;61.90;;;;;;12747285;23;20215;-82
2022/05/04 10:59:30;;;;;;;4.95;3.10;;;20.60;61.80;;;;;;12746069;23;20787;-82
2022/05/04 11:04:34;;;;;;;5.07;2.85;;;20.40;61.50;;;;;;12728457;23;20192;-82
2022/05/04 11:09:46;;;;;;;4.93;3.90;;;20.60;60.70;;;;;;12702868;23;20240;-81
2022/05/04 11:14:50;;;;;;;3.03;2.72;;;20.40;58.60;;;;;;12746271;23;20218;-82
2022/05/04 11:19:52;;;;;;;3.10;2.30;;;20.40;61.90;;;;;;12678621;23;20243;-81
2022/05/04 11:24:58;;;;;;;2.75;2.47;;;20.50;61.60;;;;;;12726408;23;20192;-82
2022/05/04 11:30:04;;;;;;;4.90;2.67;;;20.70;61.10;;;;;;12727019;23;20165;-82
2022/05/04 11:35:13;;;;;;;3.47;2.70;;;20.50;61.20;;;;;;12730946;23;20173;-82
2022/05/04 11:40:17;;;;;;;3.15;2.85;;;20.50;61.80;;;;;;12678670;23;20183;-82
2022/05/04 11:45:29;;;;;;;9.60;3.90;;;20.50;61.90;;;;;;12727264;23;20176;-82
2022/05/04 11:50:33;;;;;;;5.68;3.78;;;19.80;53.10;;;;;;12701309;23;20177;-82
2022/05/04 11:55:35;;;;;;;3.58;2.97;;;19.40;57.90;;;;;;12703856;23;20548;-82
2022/05/04 12:00:38;;;;;;;2.72;2.47;;;19.90;63.00;;;;;;12702496;23;20507;-82
2022/05/04 12:05:41;;;;;;;4.80;3.75;;;20.10;61.90;;;;;;12726294;23;20177;-82
2022/05/04 12:16:22;;;;;;;4.90;3.87;;;19.60;57.30;;;;;;12827821;23;20230;-78
2022/05/04 12:21:25;;;;;;;3.90;3.60;;;19.70;52.50;;;;;;12851848;23;20179;-78
2022/05/04 12:26:28;;;;;;;10.88;3.97;;;19.50;56.40;;;;;;12851324;23;20496;-78
2022/05/04 12:36:51;;;;;;;4.67;3.40;;;19.70;56.60;;;;;;12851340;23;20229;-78
2022/05/04 12:41:56;;;;;;;2.87;2.53;;;19.60;55.40;;;;;;12850802;23;20191;-78
2022/05/04 12:47:01;;;;;;;7.60;3.77;;;19.40;62.50;;;;;;12849564;23;20221;-78
2022/05/04 12:52:04;;;;;;;5.37;4.17;;;19.40;55.60;;;;;;12853029;23;20559;-78
2022/05/04 12:57:06;;;;;;;2.57;2.37;;;18.50;56.70;;;;;;12852830;23;20183;-77
2022/05/04 13:02:09;;;;;;;7.33;3.97;;;19.20;63.90;;;;;;12854761;23;20234;-78
2022/05/04 13:07:12;;;;;;;4.53;3.23;;;19.40;54.80;;;;;;12854043;23;20487;-79
2022/05/04 13:12:15;;;;;;;3.70;3.00;;;19.30;56.80;;;;;;12826708;23;20207;-81
2022/05/04 13:17:17;;;;;;;7.93;4.17;;;19.20;61.00;;;;;;12794227;23;20191;-81
2022/05/04 13:22:20;;;;;;;3.57;3.27;;;19.00;53.90;;;;;;12767120;23;20227;-81
2022/05/04 13:27:22;;;;;;;8.53;3.37;;;19.00;54.50;;;;;;12790936;23;20172;-81
2022/05/04 13:32:25;;;;;;;4.35;3.13;;;19.40;54.30;;;;;;12765778;23;20179;-81
2022/05/04 13:37:35;;;;;;;2.75;2.20;;;19.30;59.40;;;;;;12765568;23;20184;-81
2022/05/04 13:42:37;;;;;;;3.20;2.90;;;19.60;61.50;;;;;;12793482;23;20215;-81
2022/05/04 13:47:40;;;;;;;2.93;2.67;;;19.50;58.70;;;;;;12765962;23;20238;-81
2022/05/04 13:58:05;;;;;;;5.37;4.20;;;19.40;60.40;;;;;;12764898;23;20515;-81
2022/05/04 14:03:08;;;;;;;4.57;4.17;;;19.10;58.20;;;;;;12791866;23;20234;-81
2022/05/04 14:08:12;;;;;;;6.57;4.20;;;18.80;58.50;;;;;;12766876;23;20172;-81
2022/05/04 14:13:17;;;;;;;7.85;4.55;;;18.80;59.50;;;;;;12792197;23;20226;-81
2022/05/04 14:18:21;;;;;;;10.40;4.30;;;18.10;58.10;;;;;;12790500;23;20367;-81
2022/05/04 14:23:23;;;;;;;6.07;3.67;;;17.90;58.50;;;;;;12767253;23;20187;-81
2022/05/04 14:28:28;;;;;;;6.83;4.27;;;18.40;58.60;;;;;;12765958;23;20179;-81
2022/05/04 14:33:31;;;;;;;3.60;3.30;;;18.40;57.80;;;;;;12790860;23;20482;-81
2022/05/04 14:38:35;;;;;;;7.77;4.07;;;18.80;56.60;;;;;;12790790;23;20498;-81
2022/05/04 14:43:37;;;;;;;4.97;3.17;;;18.80;58.90;;;;;;12764461;23;20674;-80
2022/05/04 14:48:40;;;;;;;6.97;4.00;;;18.70;60.80;;;;;;12763813;23;20172;-80
2022/05/04 14:53:46;;;;;;;9.77;4.23;;;18.40;59.40;;;;;;12764360;23;20184;-80
2022/05/04 14:58:49;;;;;;;3.87;3.20;;;18.40;61.20;;;;;;12764362;23;20180;-80
2022/05/04 15:09:12;;;;;;;12.10;3.70;;;18.70;59.60;;;;;;12808886;23;20549;-79
2022/05/04 15:14:15;;;;;;;2.97;2.65;;;18.60;63.60;;;;;;12791277;23;20195;-79
2022/05/04 15:19:20;;;;;;;4.77;3.00;;;18.70;63.70;;;;;;12764938;23;20179;-80
2022/05/04 15:24:22;;;;;;;5.07;3.03;;;18.50;63.90;;;;;;12784311;23;20191;-80
2022/05/04 15:29:25;;;;;;;3.20;2.90;;;18.50;59.50;;;;;;12766504;23;20171;-80
2022/05/04 15:34:27;;;;;;;3.67;3.00;;;18.80;63.90;;;;;;12765897;23;20231;-80
2022/05/04 15:39:31;;;;;;;4.90;3.43;;;18.90;62.70;;;;;;12791473;23;20171;-80
2022/05/04 15:44:33;;;;;;;3.20;2.90;;;19.10;60.20;;;;;;12737167;23;20257;-80
2022/05/04 15:49:36;;;;;;;3.43;2.60;;;18.90;63.20;;;;;;12805836;23;20214;-80
2022/05/04 15:54:38;;;;;;;2.90;2.60;;;18.90;63.30;;;;;;12759089;23;20536;-80
2022/05/04 15:59:41;;;;;;;4.23;3.17;;;19.00;63.30;;;;;;12794314;23;20673;-80
2022/05/04 16:04:44;;;;;;;4.33;2.70;;;19.20;63.20;;;;;;12760633;23;20192;-80
2022/05/04 16:09:46;;;;;;;4.90;2.70;;;19.20;61.20;;;;;;12780771;23;20186;-80
2022/05/04 16:14:49;;;;;;;3.80;3.00;;;19.20;63.10;;;;;;12725141;23;20542;-80
2022/05/04 16:25:20;;;;;;;3.20;2.90;;;19.10;63.20;;;;;;12703526;23;20556;-80
2022/05/04 16:30:23;;;;;;;2.67;2.47;;;19.20;63.10;;;;;;12748848;23;20180;-80
2022/05/04 16:35:26;;;;;;;3.37;3.07;;;19.30;62.80;;;;;;12728539;23;20164;-80
2022/05/04 16:40:28;;;;;;;2.50;2.30;;;19.40;62.60;;;;;;12725696;23;20247;-80
2022/05/04 16:45:32;;;;;;;5.73;3.13;;;19.50;62.60;;;;;;12725853;23;20204;-80
2022/05/04 16:50:35;;;;;;;3.10;2.80;;;19.30;62.30;;;;;;12726181;23;20168;-80
2022/05/04 16:55:39;;;;;;;2.57;2.33;;;19.30;62.80;;;;;;12725784;23;20176;-80
2022/05/04 17:00:41;;;;;;;2.70;2.50;;;19.30;63.00;;;;;;12729074;23;20534;-80
2022/05/04 17:05:44;;;;;;;6.90;3.17;;;19.10;63.20;;;;;;12731175;23;20193;-82
2022/05/04 17:10:47;;;;;;;10.27;3.17;;;18.90;62.10;;;;;;12734558;23;20191;-82
2022/05/04 17:15:49;;;;;;;5.73;3.10;;;18.80;63.60;;;;;;12731360;23;20184;-82
2022/05/04 17:20:52;;;;;;;10.10;4.65;;;19.10;64.20;;;;;;12732680;23;20165;-82
2022/05/04 17:25:56;;;;;;;30.47;5.10;;;19.10;62.10;;;;;;12729979;23;20580;-82
2022/05/04 17:30:59;;;;;;;13.73;4.50;;;18.70;60.90;;;;;;12730329;23;20181;-82
2022/05/04 17:41:23;;;;;;;11.00;5.23;;;16.80;66.00;;;;;;12748823;23;20253;-82
2022/05/04 17:46:25;;;;;;;10.10;4.50;;;16.10;67.70;;;;;;12732609;23;20196;-82
2022/05/04 17:51:28;;;;;;;6.13;3.87;;;15.30;73.10;;;;;;12749420;23;20503;-81
2022/05/04 17:56:31;;;;;;;13.07;5.00;;;15.80;74.00;;;;;;12730510;23;20485;-81
2022/05/04 18:06:55;;;;;;;34.50;6.93;;;15.90;72.60;;;;;;12748782;23;20497;-81
2022/05/04 18:11:57;;;;;;;25.47;6.33;;;15.30;73.90;;;;;;12743404;23;20260;-81
2022/05/04 18:17:01;;;;;;;17.67;7.90;;;14.30;75.10;;;;;;12765496;23;20234;-81
2022/05/04 18:22:04;;;;;;;4.63;3.80;;;14.00;78.60;;;;;;12792098;23;20245;-81
2022/05/04 18:27:06;;;;;;;6.20;3.87;;;14.90;78.60;;;;;;12766936;23;20163;-81
2022/05/04 18:32:09;;;;;;;4.47;3.53;;;15.40;76.60;;;;;;12807511;23;20636;-81
2022/05/04 18:37:12;;;;;;;6.37;3.50;;;15.80;75.60;;;;;;12791512;23;20237;-81
2022/05/04 18:42:14;;;;;;;3.37;3.07;;;16.30;73.90;;;;;;12792491;23;20470;-81
2022/05/04 18:47:16;;;;;;;4.70;4.23;;;16.30;73.40;;;;;;12764566;23;20203;-81
2022/05/04 18:52:19;;;;;;;3.30;2.60;;;16.30;73.40;;;;;;12808678;23;20164;-81
2022/05/04 18:57:28;;;;;;;17.00;6.80;;;16.10;73.90;;;;;;12785532;23;20194;-80
2022/05/04 19:02:31;;;;;;;10.67;6.43;;;15.60;73.70;;;;;;12765418;23;20728;-81
2022/05/04 19:07:34;;;;;;;5.97;5.33;;;14.70;76.10;;;;;;12762300;23;20215;-80
2022/05/04 19:12:38;;;;;;;7.93;4.30;;;14.90;77.40;;;;;;12765390;23;20204;-80
2022/05/04 19:17:44;;;;;;;5.73;4.03;;;15.00;76.80;;;;;;12782335;23;20222;-81
2022/05/04 19:22:47;;;;;;;5.03;3.67;;;14.90;77.50;;;;;;12807785;23;20184;-81
2022/05/04 19:27:49;;;;;;;5.93;3.40;;;14.70;78.10;;;;;;12790456;23;20168;-81
2022/05/04 19:32:53;;;;;;;4.90;3.60;;;14.90;78.20;;;;;;12789332;23;20491;-81
2022/05/04 19:37:56;;;;;;;3.50;3.20;;;14.90;78.10;;;;;;12737746;23;20519;-81
2022/05/04 19:43:01;;;;;;;6.03;4.47;;;15.30;77.00;;;;;;12789437;23;20226;-81
2022/05/04 19:48:04;;;;;;;8.07;4.20;;;15.70;75.70;;;;;;12807485;23;20492;-81
2022/05/04 19:53:07;;;;;;;4.27;3.43;;;15.60;75.30;;;;;;12762161;23;20254;-81
2022/05/04 19:58:10;;;;;;;4.43;3.70;;;15.70;75.60;;;;;;12791398;23;20554;-81
2022/05/04 20:03:12;;;;;;;3.30;2.90;;;15.70;75.10;;;;;;12793188;23;20195;-81
2022/05/04 20:08:15;;;;;;;4.10;3.33;;;15.80;75.10;;;;;;12796553;23;20164;-81
2022/05/04 20:13:17;;;;;;;4.33;3.40;;;16.10;74.10;;;;;;12795053;23;20583;-81
2022/05/04 20:18:20;;;;;;;3.90;3.13;;;15.80;74.60;;;;;;12769014;23;20558;-80
2022/05/04 20:23:23;;;;;;;10.27;5.70;;;15.80;74.70;;;;;;12793770;23;20234;-80
2022/05/04 20:28:25;;;;;;;4.97;4.30;;;15.00;75.10;;;;;;12794154;23;20168;-81
2022/05/04 20:33:28;;;;;;;3.57;3.27;;;15.20;76.00;;;;;;12744288;23;20184;-80
2022/05/04 20:43:52;;;;;;;12.60;6.40;;;13.70;76.70;;;;;;12808713;23;20188;-81
2022/05/04 20:48:56;;;;;;;14.07;5.80;;;13.70;77.30;;;;;;12769069;23;20517;-80
2022/05/04 20:53:58;;;;;;;4.50;3.73;;;12.30;77.00;;;;;;12768699;23;20164;-80
2022/05/04 20:59:05;;;;;;;6.83;5.90;;;11.90;81.00;;;;;;12743709;23;20180;-80
2022/05/04 21:04:08;;;;;;;4.07;3.60;;;12.00;83.60;;;;;;12811309;23;20601;-80
2022/05/04 21:09:13;;;;;;;5.97;3.10;;;12.80;87.60;;;;;;12766707;23;20171;-81
2022/05/04 21:14:15;;;;;;;3.20;2.90;;;13.80;83.10;;;;;;12729567;23;20251;-80
2022/05/04 21:19:18;;;;;;;3.97;3.50;;;14.20;82.00;;;;;;12733249;23;20172;-80
2022/05/04 21:24:23;;;;;;;4.67;3.87;;;14.50;80.40;;;;;;12733313;23;20192;-81
2022/05/04 21:29:25;;;;;;;3.80;3.30;;;14.80;79.00;;;;;;12756042;23;20496;-80
2022/05/04 21:34:28;;;;;;;3.40;3.10;;;14.70;78.70;;;;;;12733605;23;20484;-81
2022/05/04 21:39:31;;;;;;;3.53;3.23;;;14.80;79.10;;;;;;12732413;23;20172;-81
2022/05/04 21:44:33;;;;;;;6.90;4.50;;;14.60;78.80;;;;;;12730238;23;20191;-81
2022/05/04 21:49:35;;;;;;;3.87;3.13;;;13.40;83.60;;;;;;12729440;23;20172;-81
2022/05/04 21:54:38;;;;;;;6.17;4.60;;;14.40;81.60;;;;;;12755931;23;20172;-81
2022/05/04 21:59:40;;;;;;;4.87;3.73;;;14.80;79.10;;;;;;12731615;23;20172;-81
2022/05/04 22:04:43;;;;;;;9.40;6.50;;;14.70;78.50;;;;;;12730802;23;20536;-81
2022/05/04 22:09:46;;;;;;;11.80;7.50;;;14.70;77.00;;;;;;12731316;23;20164;-81
2022/05/04 22:14:48;;;;;;;4.13;3.43;;;14.40;78.00;;;;;;12777888;23;20195;-80
2022/05/04 22:19:51;;;;;;;8.40;6.20;;;14.10;79.20;;;;;;12793623;23;20173;-80
2022/05/04 22:24:54;;;;;;;5.00;4.07;;;13.40;78.10;;;;;;12792546;23;20191;-81
2022/05/04 22:29:56;;;;;;;9.33;4.90;;;13.50;80.70;;;;;;12792733;23;20171;-81
2022/05/04 22:34:59;;;;;;;4.30;3.43;;;13.20;82.70;;;;;;12793446;23;20199;-81
2022/05/04 22:40:02;;;;;;;3.47;3.00;;;13.60;83.10;;;;;;12792800;23;20173;-81
2022/05/04 22:45:05;;;;;;;3.43;3.03;;;14.10;81.10;;;;;;12789405;23;20191;-81
2022/05/04 22:50:08;;;;;;;3.77;3.20;;;14.80;79.20;;;;;;12765675;23;20198;-81
2022/05/04 22:55:11;;;;;;;4.20;3.80;;;14.90;78.10;;;;;;12810740;23;20202;-80
2022/05/04 23:00:13;;;;;;;6.77;3.50;;;14.90;77.90;;;;;;12792644;23;20561;-80
2022/05/04 23:05:16;;;;;;;4.83;4.33;;;15.10;78.00;;;;;;12790019;23;20529;-80
2022/05/04 23:10:18;;;;;;;6.97;5.43;;;15.30;76.60;;;;;;12764662;23;20569;-80
2022/05/04 23:16:03;;;;;;;4.30;3.90;;;15.30;76.40;;;;;;12794171;23;20196;-80
2022/05/04 23:20:43;;;;;;;6.07;4.60;;;15.20;76.10;;;;;;12793604;23;20525;-80
2022/05/04 23:25:46;;;;;;;6.30;4.73;;;14.10;79.00;;;;;;12810179;23;20183;-80
2022/05/04 23:30:51;;;;;;;8.13;6.07;;;14.00;76.90;;;;;;12766048;23;20172;-80
2022/05/04 23:35:54;;;;;;;11.13;6.10;;;12.00;78.60;;;;;;12765732;23;20168;-80
2022/05/04 23:40:56;;;;;;;9.63;6.20;;;11.80;80.40;;;;;;12783661;23;20204;-80
2022/05/04 23:46:00;;;;;;;5.00;4.00;;;11.90;82.40;;;;;;12765504;23;20183;-80
2022/05/04 23:51:04;;;;;;;7.37;5.03;;;11.70;87.80;;;;;;12791450;23;20549;-80
2022/05/04 23:56:09;;;;;;;4.67;3.47;;;12.30;82.60;;;;;;12791163;23;20172;-80
